sensor_id;sensor_type;location;lat;lon;timestamp;temperature;humidity
38860;DHT22;24609;48.316;16.174;2023-10-19T00:01:16;8.50;99.90
38860;DHT22;24609;48.316;16.174;2023-10-19T00:03:42;8.60;99.90
38860;DHT22;24609;48.316;16.174;2023-10-19T00:06:11;8.50;99.90
38860;DHT22;24609;48.316;16.174;2023-10-19T00:08:39;8.50;99.90
38860;DHT22;24609;48.316;16.174;2023-10-19T00:11:08;8.60;99.90
38860;DHT22;24609;48.316;16.174;2023-10-19T00:13:47;8.60;99.90
38860;DHT22;24609;48.316;16.174;2023-10-19T00:16:16;8.40;99.90
38860;DHT22;24609;48.316;16.174;2023-10-19T00:18:43;8.30;99.90
38860;DHT22;24609;48.316;16.174;2023-10-19T00:21:10;8.30;99.90
38860;DHT22;24609;48.316;16.174;2023-10-19T00:23:46;8.30;99.90
38860;DHT22;24609;48.316;16.174;2023-10-19T00:26:17;8.30;99.90
38860;DHT22;24609;48.316;16.174;2023-10-19T00:28:45;8.30;99.90
38860;DHT22;24609;48.316;16.174;2023-10-19T00:31:14;8.30;99.90
38860;DHT22;24609;48.316;16.174;2023-10-19T00:33:40;8.30;99.90
38860;DHT22;24609;48.316;16.174;2023-10-19T00:36:09;8.30;99.90
38860;DHT22;24609;48.316;16.174;2023-10-19T00:38:39;8.40;99.90
38860;DHT22;24609;48.316;16.174;2023-10-19T00:41:13;8.50;99.90
38860;DHT22;24609;48.316;16.174;2023-10-19T00:43:43;8.50;99.90
38860;DHT22;24609;48.316;16.174;2023-10-19T00:46:13;8.70;99.90
38860;DHT22;24609;48.316;16.174;2023-10-19T00:51:17;8.80;99.90
38860;DHT22;24609;48.316;16.174;2023-10-19T00:54:00;8.80;99.90
38860;DHT22;24609;48.316;16.174;2023-10-19T00:56:31;8.80;99.90
38860;DHT22;24609;48.316;16.174;2023-10-19T00:59:01;8.70;99.90
38860;DHT22;24609;48.316;16.174;2023-10-19T01:01:38;8.60;99.90
38860;DHT22;24609;48.316;16.174;2023-10-19T01:04:09;8.50;99.90
38860;DHT22;24609;48.316;16.174;2023-10-19T01:06:42;8.40;99.90
38860;DHT22;24609;48.316;16.174;2023-10-19T01:09:25;8.40;99.90
38860;DHT22;24609;48.316;16.174;2023-10-19T01:11:53;8.50;99.90
38860;DHT22;24609;48.316;16.174;2023-10-19T01:14:22;8.40;99.90
38860;DHT22;24609;48.316;16.174;2023-10-19T01:16:53;8.40;99.90
38860;DHT22;24609;48.316;16.174;2023-10-19T01:19:22;8.40;99.90
38860;DHT22;24609;48.316;16.174;2023-10-19T01:21:49;8.30;99.90
38860;DHT22;24609;48.316;16.174;2023-10-19T01:24:21;8.40;99.90
38860;DHT22;24609;48.316;16.174;2023-10-19T01:27:07;8.40;99.90
38860;DHT22;24609;48.316;16.174;2023-10-19T01:29:36;8.40;99.90
38860;DHT22;24609;48.316;16.174;2023-10-19T01:32:04;8.40;99.90
38860;DHT22;24609;48.316;16.174;2023-10-19T01:34:37;8.40;99.90
38860;DHT22;24609;48.316;16.174;2023-10-19T01:37:03;8.40;99.90
38860;DHT22;24609;48.316;16.174;2023-10-19T01:39:33;8.40;99.90
38860;DHT22;24609;48.316;16.174;2023-10-19T01:42:01;8.40;99.90
38860;DHT22;24609;48.316;16.174;2023-10-19T01:44:27;8.30;99.90
38860;DHT22;24609;48.316;16.174;2023-10-19T01:46:53;8.30;99.90
38860;DHT22;24609;48.316;16.174;2023-10-19T01:49:19;8.30;99.90
38860;DHT22;24609;48.316;16.174;2023-10-19T01:51:54;8.20;99.90
38860;DHT22;24609;48.316;16.174;2023-10-19T01:54:22;8.30;99.90
38860;DHT22;24609;48.316;16.174;2023-10-19T01:56:52;8.30;99.90
38860;DHT22;24609;48.316;16.174;2023-10-19T01:59:26;8.20;99.90
38860;DHT22;24609;48.316;16.174;2023-10-19T02:01:56;8.20;99.90
38860;DHT22;24609;48.316;16.174;2023-10-19T02:04:23;8.20;99.90
38860;DHT22;24609;48.316;16.174;2023-10-19T02:06:49;8.30;99.90
38860;DHT22;24609;48.316;16.174;2023-10-19T02:09:17;8.40;99.90
38860;DHT22;24609;48.316;16.174;2023-10-19T02:11:48;8.40;99.90
38860;DHT22;24609;48.316;16.174;2023-10-19T02:14:15;8.50;99.90
38860;DHT22;24609;48.316;16.174;2023-10-19T02:16:46;8.50;99.90
38860;DHT22;24609;48.316;16.174;2023-10-19T02:19:13;8.50;99.90
38860;DHT22;24609;48.316;16.174;2023-10-19T02:21:39;8.50;99.90
38860;DHT22;24609;48.316;16.174;2023-10-19T02:24:09;8.50;99.90
38860;DHT22;24609;48.316;16.174;2023-10-19T02:26:35;8.40;99.90
38860;DHT22;24609;48.316;16.174;2023-10-19T02:29:03;8.30;99.90
38860;DHT22;24609;48.316;16.174;2023-10-19T02:31:36;8.30;99.90
38860;DHT22;24609;48.316;16.174;2023-10-19T02:34:06;8.20;99.90
38860;DHT22;24609;48.316;16.174;2023-10-19T02:36:33;8.20;99.90
38860;DHT22;24609;48.316;16.174;2023-10-19T02:39:06;8.20;99.90
38860;DHT22;24609;48.316;16.174;2023-10-19T02:41:37;8.20;99.90
38860;DHT22;24609;48.316;16.174;2023-10-19T02:44:14;8.10;99.90
38860;DHT22;24609;48.316;16.174;2023-10-19T02:46:50;8.00;99.90
38860;DHT22;24609;48.316;16.174;2023-10-19T02:49:18;8.00;99.90
38860;DHT22;24609;48.316;16.174;2023-10-19T02:51:49;7.90;99.90
38860;DHT22;24609;48.316;16.174;2023-10-19T02:54:17;7.90;99.90
38860;DHT22;24609;48.316;16.174;2023-10-19T02:56:47;7.90;99.90
38860;DHT22;24609;48.316;16.174;2023-10-19T02:59:14;7.90;99.90
38860;DHT22;24609;48.316;16.174;2023-10-19T03:01:42;8.10;99.90
38860;DHT22;24609;48.316;16.174;2023-10-19T03:04:10;8.10;99.90
38860;DHT22;24609;48.316;16.174;2023-10-19T03:06:38;8.10;99.90
38860;DHT22;24609;48.316;16.174;2023-10-19T03:09:06;8.00;99.90
38860;DHT22;24609;48.316;16.174;2023-10-19T03:11:40;8.00;99.90
38860;DHT22;24609;48.316;16.174;2023-10-19T03:14:10;8.10;99.90
38860;DHT22;24609;48.316;16.174;2023-10-19T03:16:37;8.10;99.90
38860;DHT22;24609;48.316;16.174;2023-10-19T03:19:04;8.10;99.90
38860;DHT22;24609;48.316;16.174;2023-10-19T03:21:30;8.20;99.90
38860;DHT22;24609;48.316;16.174;2023-10-19T03:23:59;8.20;99.90
38860;DHT22;24609;48.316;16.174;2023-10-19T03:26:31;8.10;99.90
38860;DHT22;24609;48.316;16.174;2023-10-19T03:28:57;8.10;99.90
38860;DHT22;24609;48.316;16.174;2023-10-19T03:31:33;8.20;99.90
38860;DHT22;24609;48.316;16.174;2023-10-19T03:34:03;8.20;99.90
38860;DHT22;24609;48.316;16.174;2023-10-19T03:36:31;8.20;99.90
38860;DHT22;24609;48.316;16.174;2023-10-19T03:38:58;8.30;99.90
38860;DHT22;24609;48.316;16.174;2023-10-19T03:41:36;8.40;99.90
38860;DHT22;24609;48.316;16.174;2023-10-19T03:44:04;8.40;99.90
38860;DHT22;24609;48.316;16.174;2023-10-19T03:46:29;8.50;99.90
38860;DHT22;24609;48.316;16.174;2023-10-19T03:48:57;8.80;99.90
38860;DHT22;24609;48.316;16.174;2023-10-19T03:51:29;8.70;99.90
38860;DHT22;24609;48.316;16.174;2023-10-19T03:54:05;8.80;99.90
38860;DHT22;24609;48.316;16.174;2023-10-19T03:56:46;8.80;99.90
38860;DHT22;24609;48.316;16.174;2023-10-19T03:59:13;8.80;99.90
38860;DHT22;24609;48.316;16.174;2023-10-19T04:01:39;8.80;99.90
38860;DHT22;24609;48.316;16.174;2023-10-19T04:04:05;8.70;99.90
38860;DHT22;24609;48.316;16.174;2023-10-19T04:06:30;8.60;99.90
38860;DHT22;24609;48.316;16.174;2023-10-19T04:08:56;8.50;99.90
38860;DHT22;24609;48.316;16.174;2023-10-19T04:11:22;8.50;99.90
38860;DHT22;24609;48.316;16.174;2023-10-19T04:13:49;8.50;99.90
38860;DHT22;24609;48.316;16.174;2023-10-19T04:16:19;8.50;99.90
38860;DHT22;24609;48.316;16.174;2023-10-19T04:18:44;8.60;99.90
38860;DHT22;24609;48.316;16.174;2023-10-19T04:21:10;8.60;99.90
38860;DHT22;24609;48.316;16.174;2023-10-19T04:23:36;8.60;99.90
38860;DHT22;24609;48.316;16.174;2023-10-19T04:26:02;8.60;99.90
38860;DHT22;24609;48.316;16.174;2023-10-19T04:28:37;8.70;99.90
38860;DHT22;24609;48.316;16.174;2023-10-19T04:31:16;8.80;99.90
38860;DHT22;24609;48.316;16.174;2023-10-19T04:33:42;8.90;99.90
38860;DHT22;24609;48.316;16.174;2023-10-19T04:36:14;9.00;99.90
38860;DHT22;24609;48.316;16.174;2023-10-19T04:38:40;9.10;99.90
38860;DHT22;24609;48.316;16.174;2023-10-19T04:41:10;9.20;99.90
38860;DHT22;24609;48.316;16.174;2023-10-19T04:43:39;9.20;99.90
38860;DHT22;24609;48.316;16.174;2023-10-19T04:46:10;9.20;99.90
38860;DHT22;24609;48.316;16.174;2023-10-19T04:48:37;9.30;99.90
38860;DHT22;24609;48.316;16.174;2023-10-19T04:51:06;9.30;99.90
38860;DHT22;24609;48.316;16.174;2023-10-19T04:53:32;9.30;99.90
38860;DHT22;24609;48.316;16.174;2023-10-19T04:55:58;9.30;99.90
38860;DHT22;24609;48.316;16.174;2023-10-19T04:58:27;9.30;99.90
38860;DHT22;24609;48.316;16.174;2023-10-19T05:00:53;9.40;99.90
38860;DHT22;24609;48.316;16.174;2023-10-19T05:03:19;9.40;99.90
38860;DHT22;24609;48.316;16.174;2023-10-19T05:05:45;9.40;99.90
38860;DHT22;24609;48.316;16.174;2023-10-19T05:08:11;9.40;99.90
38860;DHT22;24609;48.316;16.174;2023-10-19T05:10:37;9.30;99.90
38860;DHT22;24609;48.316;16.174;2023-10-19T05:13:03;9.20;99.90
38860;DHT22;24609;48.316;16.174;2023-10-19T05:15:29;9.10;99.90
38860;DHT22;24609;48.316;16.174;2023-10-19T05:17:55;9.10;99.90
38860;DHT22;24609;48.316;16.174;2023-10-19T05:20:20;9.10;99.90
38860;DHT22;24609;48.316;16.174;2023-10-19T05:22:47;9.20;99.90
38860;DHT22;24609;48.316;16.174;2023-10-19T05:25:12;9.20;99.90
38860;DHT22;24609;48.316;16.174;2023-10-19T05:27:38;9.20;99.90
38860;DHT22;24609;48.316;16.174;2023-10-19T05:30:05;9.30;99.90
38860;DHT22;24609;48.316;16.174;2023-10-19T05:32:31;9.40;99.90
38860;DHT22;24609;48.316;16.174;2023-10-19T05:34:57;9.40;99.90
38860;DHT22;24609;48.316;16.174;2023-10-19T05:37:23;9.40;99.90
38860;DHT22;24609;48.316;16.174;2023-10-19T05:39:49;9.50;99.90
38860;DHT22;24609;48.316;16.174;2023-10-19T05:42:17;9.50;99.90
38860;DHT22;24609;48.316;16.174;2023-10-19T05:44:43;9.60;99.90
38860;DHT22;24609;48.316;16.174;2023-10-19T05:47:09;9.60;99.90
38860;DHT22;24609;48.316;16.174;2023-10-19T05:49:34;9.70;99.90
38860;DHT22;24609;48.316;16.174;2023-10-19T05:52:00;9.80;99.90
38860;DHT22;24609;48.316;16.174;2023-10-19T05:54:26;9.80;99.90
38860;DHT22;24609;48.316;16.174;2023-10-19T05:56:52;9.80;99.90
38860;DHT22;24609;48.316;16.174;2023-10-19T05:59:19;9.90;99.90
38860;DHT22;24609;48.316;16.174;2023-10-19T06:01:44;10.00;99.90
38860;DHT22;24609;48.316;16.174;2023-10-19T06:04:12;10.10;99.90
38860;DHT22;24609;48.316;16.174;2023-10-19T06:06:38;10.10;99.90
38860;DHT22;24609;48.316;16.174;2023-10-19T06:09:07;10.20;99.90
38860;DHT22;24609;48.316;16.174;2023-10-19T06:11:36;10.30;99.90
38860;DHT22;24609;48.316;16.174;2023-10-19T06:14:08;10.30;99.90
38860;DHT22;24609;48.316;16.174;2023-10-19T06:16:35;10.40;99.90
38860;DHT22;24609;48.316;16.174;2023-10-19T06:19:01;10.50;99.90
38860;DHT22;24609;48.316;16.174;2023-10-19T06:21:28;10.60;99.90
38860;DHT22;24609;48.316;16.174;2023-10-19T06:23:55;10.70;99.90
38860;DHT22;24609;48.316;16.174;2023-10-19T06:26:21;10.70;99.90
38860;DHT22;24609;48.316;16.174;2023-10-19T06:28:47;10.70;99.90
38860;DHT22;24609;48.316;16.174;2023-10-19T06:31:12;10.80;99.90
38860;DHT22;24609;48.316;16.174;2023-10-19T06:33:40;10.80;99.90
38860;DHT22;24609;48.316;16.174;2023-10-19T06:36:07;11.00;99.90
38860;DHT22;24609;48.316;16.174;2023-10-19T06:38:33;10.90;99.90
38860;DHT22;24609;48.316;16.174;2023-10-19T06:41:02;11.00;99.90
38860;DHT22;24609;48.316;16.174;2023-10-19T06:43:36;11.20;99.90
38860;DHT22;24609;48.316;16.174;2023-10-19T06:46:02;11.10;99.90
38860;DHT22;24609;48.316;16.174;2023-10-19T06:48:27;11.20;99.90
38860;DHT22;24609;48.316;16.174;2023-10-19T06:50:53;11.00;99.90
38860;DHT22;24609;48.316;16.174;2023-10-19T06:53:19;11.10;99.90
38860;DHT22;24609;48.316;16.174;2023-10-19T06:55:44;11.10;99.90
38860;DHT22;24609;48.316;16.174;2023-10-19T06:58:10;11.00;99.90
38860;DHT22;24609;48.316;16.174;2023-10-19T07:00:37;10.40;99.90
38860;DHT22;24609;48.316;16.174;2023-10-19T07:03:08;10.30;99.90
38860;DHT22;24609;48.316;16.174;2023-10-19T07:05:33;10.40;99.90
38860;DHT22;24609;48.316;16.174;2023-10-19T07:07:59;10.60;99.90
38860;DHT22;24609;48.316;16.174;2023-10-19T07:10:27;10.70;99.90
38860;DHT22;24609;48.316;16.174;2023-10-19T07:12:54;10.70;99.90
38860;DHT22;24609;48.316;16.174;2023-10-19T07:15:20;10.60;99.90
38860;DHT22;24609;48.316;16.174;2023-10-19T07:17:48;10.30;99.90
38860;DHT22;24609;48.316;16.174;2023-10-19T07:20:16;10.20;99.90
38860;DHT22;24609;48.316;16.174;2023-10-19T07:22:51;10.50;99.90
38860;DHT22;24609;48.316;16.174;2023-10-19T07:25:17;10.80;99.90
38860;DHT22;24609;48.316;16.174;2023-10-19T07:27:50;10.80;99.90
38860;DHT22;24609;48.316;16.174;2023-10-19T07:30:20;10.70;99.90
38860;DHT22;24609;48.316;16.174;2023-10-19T07:32:50;10.70;99.90
38860;DHT22;24609;48.316;16.174;2023-10-19T07:35:28;10.80;99.90
38860;DHT22;24609;48.316;16.174;2023-10-19T07:37:56;10.50;99.90
38860;DHT22;24609;48.316;16.174;2023-10-19T07:40:22;10.50;99.90
38860;DHT22;24609;48.316;16.174;2023-10-19T07:42:49;11.00;99.90
38860;DHT22;24609;48.316;16.174;2023-10-19T07:45:17;11.20;99.90
38860;DHT22;24609;48.316;16.174;2023-10-19T07:47:43;11.20;99.90
38860;DHT22;24609;48.316;16.174;2023-10-19T07:50:11;10.80;99.90
38860;DHT22;24609;48.316;16.174;2023-10-19T07:52:48;10.60;99.90
38860;DHT22;24609;48.316;16.174;2023-10-19T07:55:15;10.80;99.90
38860;DHT22;24609;48.316;16.174;2023-10-19T07:57:41;10.90;99.90
38860;DHT22;24609;48.316;16.174;2023-10-19T08:00:11;11.10;99.90
38860;DHT22;24609;48.316;16.174;2023-10-19T08:02:39;11.30;99.90
38860;DHT22;24609;48.316;16.174;2023-10-19T08:05:07;11.40;99.90
38860;DHT22;24609;48.316;16.174;2023-10-19T08:07:33;11.40;99.90
38860;DHT22;24609;48.316;16.174;2023-10-19T08:10:02;11.60;99.90
38860;DHT22;24609;48.316;16.174;2023-10-19T08:12:31;11.80;99.90
38860;DHT22;24609;48.316;16.174;2023-10-19T08:14:58;11.50;99.90
38860;DHT22;24609;48.316;16.174;2023-10-19T08:17:25;11.60;99.90
38860;DHT22;24609;48.316;16.174;2023-10-19T08:19:50;11.70;99.90
38860;DHT22;24609;48.316;16.174;2023-10-19T08:22:16;12.10;99.90
38860;DHT22;24609;48.316;16.174;2023-10-19T08:24:42;12.40;99.90
38860;DHT22;24609;48.316;16.174;2023-10-19T08:27:12;12.60;99.90
38860;DHT22;24609;48.316;16.174;2023-10-19T08:29:38;12.60;99.90
38860;DHT22;24609;48.316;16.174;2023-10-19T08:32:04;12.70;99.90
38860;DHT22;24609;48.316;16.174;2023-10-19T08:34:34;12.40;99.90
38860;DHT22;24609;48.316;16.174;2023-10-19T08:37:02;12.20;99.90
38860;DHT22;24609;48.316;16.174;2023-10-19T08:39:28;12.60;99.90
38860;DHT22;24609;48.316;16.174;2023-10-19T08:41:53;13.10;99.90
38860;DHT22;24609;48.316;16.174;2023-10-19T08:44:21;13.30;99.90
38860;DHT22;24609;48.316;16.174;2023-10-19T08:46:47;13.40;99.90
38860;DHT22;24609;48.316;16.174;2023-10-19T08:49:14;13.60;99.90
38860;DHT22;24609;48.316;16.174;2023-10-19T08:51:43;13.60;99.90
38860;DHT22;24609;48.316;16.174;2023-10-19T08:54:11;13.70;99.90
38860;DHT22;24609;48.316;16.174;2023-10-19T08:56:38;13.80;99.90
38860;DHT22;24609;48.316;16.174;2023-10-19T08:59:04;13.70;99.90
38860;DHT22;24609;48.316;16.174;2023-10-19T09:01:31;13.90;99.90
38860;DHT22;24609;48.316;16.174;2023-10-19T09:04:00;14.10;99.90
38860;DHT22;24609;48.316;16.174;2023-10-19T09:06:26;13.50;99.90
38860;DHT22;24609;48.316;16.174;2023-10-19T09:08:54;14.00;99.90
38860;DHT22;24609;48.316;16.174;2023-10-19T09:11:21;14.20;99.90
38860;DHT22;24609;48.316;16.174;2023-10-19T09:13:48;14.10;99.90
38860;DHT22;24609;48.316;16.174;2023-10-19T09:16:21;14.30;99.90
38860;DHT22;24609;48.316;16.174;2023-10-19T09:18:48;14.20;99.90
38860;DHT22;24609;48.316;16.174;2023-10-19T09:21:19;14.00;99.90
38860;DHT22;24609;48.316;16.174;2023-10-19T09:23:53;13.50;99.90
38860;DHT22;24609;48.316;16.174;2023-10-19T09:26:20;13.30;99.90
38860;DHT22;24609;48.316;16.174;2023-10-19T09:28:48;13.50;99.90
38860;DHT22;24609;48.316;16.174;2023-10-19T09:31:15;13.80;99.90
38860;DHT22;24609;48.316;16.174;2023-10-19T09:33:43;14.10;99.90
38860;DHT22;24609;48.316;16.174;2023-10-19T09:36:10;14.10;99.90
38860;DHT22;24609;48.316;16.174;2023-10-19T09:38:39;14.30;99.90
38860;DHT22;24609;48.316;16.174;2023-10-19T09:41:08;14.40;99.90
38860;DHT22;24609;48.316;16.174;2023-10-19T09:43:49;14.30;99.90
38860;DHT22;24609;48.316;16.174;2023-10-19T09:46:23;14.40;99.90
38860;DHT22;24609;48.316;16.174;2023-10-19T09:48:49;14.40;99.90
38860;DHT22;24609;48.316;16.174;2023-10-19T09:51:17;14.20;99.90
38860;DHT22;24609;48.316;16.174;2023-10-19T09:54:23;14.00;99.90
38860;DHT22;24609;48.316;16.174;2023-10-19T09:56:58;13.70;99.90
38860;DHT22;24609;48.316;16.174;2023-10-19T09:59:36;14.00;99.90
38860;DHT22;24609;48.316;16.174;2023-10-19T10:02:13;13.80;99.90
38860;DHT22;24609;48.316;16.174;2023-10-19T10:04:40;13.60;99.90
38860;DHT22;24609;48.316;16.174;2023-10-19T10:07:08;13.70;99.90
38860;DHT22;24609;48.316;16.174;2023-10-19T10:09:39;13.70;99.90
38860;DHT22;24609;48.316;16.174;2023-10-19T10:14:54;13.80;99.90
38860;DHT22;24609;48.316;16.174;2023-10-19T10:17:21;14.10;99.90
38860;DHT22;24609;48.316;16.174;2023-10-19T10:19:48;14.30;99.90
38860;DHT22;24609;48.316;16.174;2023-10-19T10:22:14;14.50;99.90
38860;DHT22;24609;48.316;16.174;2023-10-19T10:24:46;14.00;99.90
38860;DHT22;24609;48.316;16.174;2023-10-19T10:27:12;14.30;99.90
38860;DHT22;24609;48.316;16.174;2023-10-19T10:29:59;14.10;99.90
38860;DHT22;24609;48.316;16.174;2023-10-19T10:35:30;14.20;99.90
38860;DHT22;24609;48.316;16.174;2023-10-19T10:37:56;14.00;99.90
38860;DHT22;24609;48.316;16.174;2023-10-19T10:40:22;14.10;99.90
38860;DHT22;24609;48.316;16.174;2023-10-19T10:42:48;14.40;99.90
38860;DHT22;24609;48.316;16.174;2023-10-19T10:45:20;14.50;99.90
38860;DHT22;24609;48.316;16.174;2023-10-19T10:47:46;14.60;99.90
38860;DHT22;24609;48.316;16.174;2023-10-19T10:50:19;14.70;99.90
38860;DHT22;24609;48.316;16.174;2023-10-19T10:52:46;14.70;99.90
38860;DHT22;24609;48.316;16.174;2023-10-19T10:55:13;14.60;99.90
38860;DHT22;24609;48.316;16.174;2023-10-19T10:57:40;14.30;99.90
38860;DHT22;24609;48.316;16.174;2023-10-19T11:00:08;14.00;99.90
38860;DHT22;24609;48.316;16.174;2023-10-19T11:02:36;14.20;99.90
38860;DHT22;24609;48.316;16.174;2023-10-19T11:05:02;14.60;99.90
38860;DHT22;24609;48.316;16.174;2023-10-19T11:07:28;15.00;99.90
38860;DHT22;24609;48.316;16.174;2023-10-19T11:09:55;15.00;99.90
38860;DHT22;24609;48.316;16.174;2023-10-19T11:12:20;15.10;99.90
38860;DHT22;24609;48.316;16.174;2023-10-19T11:17:19;16.20;99.90
38860;DHT22;24609;48.316;16.174;2023-10-19T11:19:45;16.80;99.90
38860;DHT22;24609;48.316;16.174;2023-10-19T11:22:10;17.40;99.90
38860;DHT22;24609;48.316;16.174;2023-10-19T11:24:37;17.70;98.90
38860;DHT22;24609;48.316;16.174;2023-10-19T11:27:06;18.20;98.50
38860;DHT22;24609;48.316;16.174;2023-10-19T11:29:33;19.00;96.20
38860;DHT22;24609;48.316;16.174;2023-10-19T11:32:02;19.50;94.30
38860;DHT22;24609;48.316;16.174;2023-10-19T11:34:28;19.40;93.00
38860;DHT22;24609;48.316;16.174;2023-10-19T11:36:56;20.00;92.10
38860;DHT22;24609;48.316;16.174;2023-10-19T11:39:27;20.10;90.10
38860;DHT22;24609;48.316;16.174;2023-10-19T11:41:54;19.30;91.00
38860;DHT22;24609;48.316;16.174;2023-10-19T11:44:19;18.50;93.50
38860;DHT22;24609;48.316;16.174;2023-10-19T11:46:45;19.00;92.60
38860;DHT22;24609;48.316;16.174;2023-10-19T11:49:11;18.60;92.50
38860;DHT22;24609;48.316;16.174;2023-10-19T11:51:37;19.20;92.30
38860;DHT22;24609;48.316;16.174;2023-10-19T11:54:05;18.60;92.40
38860;DHT22;24609;48.316;16.174;2023-10-19T11:56:33;18.00;93.60
38860;DHT22;24609;48.316;16.174;2023-10-19T11:59:00;18.70;93.20
38860;DHT22;24609;48.316;16.174;2023-10-19T12:01:27;19.60;91.70
38860;DHT22;24609;48.316;16.174;2023-10-19T12:03:55;20.40;88.30
38860;DHT22;24609;48.316;16.174;2023-10-19T12:06:20;19.80;90.50
38860;DHT22;24609;48.316;16.174;2023-10-19T12:08:49;19.50;90.00
38860;DHT22;24609;48.316;16.174;2023-10-19T12:11:15;19.10;91.40
38860;DHT22;24609;48.316;16.174;2023-10-19T12:13:41;18.70;92.10
38860;DHT22;24609;48.316;16.174;2023-10-19T12:16:09;18.70;92.10
38860;DHT22;24609;48.316;16.174;2023-10-19T12:18:38;18.80;91.90
38860;DHT22;24609;48.316;16.174;2023-10-19T12:21:04;18.60;92.20
38860;DHT22;24609;48.316;16.174;2023-10-19T12:23:33;18.40;93.20
38860;DHT22;24609;48.316;16.174;2023-10-19T12:25:59;18.40;93.80
38860;DHT22;24609;48.316;16.174;2023-10-19T12:28:29;18.50;93.60
38860;DHT22;24609;48.316;16.174;2023-10-19T12:30:54;18.80;94.00
38860;DHT22;24609;48.316;16.174;2023-10-19T12:33:21;18.80;93.50
38860;DHT22;24609;48.316;16.174;2023-10-19T12:35:47;18.50;93.80
38860;DHT22;24609;48.316;16.174;2023-10-19T12:38:25;18.30;94.30
38860;DHT22;24609;48.316;16.174;2023-10-19T12:40:51;18.30;94.30
38860;DHT22;24609;48.316;16.174;2023-10-19T12:43:18;18.10;94.90
38860;DHT22;24609;48.316;16.174;2023-10-19T12:45:50;17.70;96.10
38860;DHT22;24609;48.316;16.174;2023-10-19T12:48:19;17.60;96.10
38860;DHT22;24609;48.316;16.174;2023-10-19T12:50:46;17.90;96.10
38860;DHT22;24609;48.316;16.174;2023-10-19T12:53:12;18.20;95.00
38860;DHT22;24609;48.316;16.174;2023-10-19T12:55:39;18.70;94.70
38860;DHT22;24609;48.316;16.174;2023-10-19T12:58:05;18.90;93.80
38860;DHT22;24609;48.316;16.174;2023-10-19T13:00:40;18.80;93.80
38860;DHT22;24609;48.316;16.174;2023-10-19T13:03:14;19.10;94.10
38860;DHT22;24609;48.316;16.174;2023-10-19T13:05:42;19.40;94.00
38860;DHT22;24609;48.316;16.174;2023-10-19T13:08:13;19.50;93.70
38860;DHT22;24609;48.316;16.174;2023-10-19T13:10:40;18.90;94.10
38860;DHT22;24609;48.316;16.174;2023-10-19T13:13:11;18.60;95.00
38860;DHT22;24609;48.316;16.174;2023-10-19T13:15:44;18.50;94.60
38860;DHT22;24609;48.316;16.174;2023-10-19T13:18:11;17.90;96.30
38860;DHT22;24609;48.316;16.174;2023-10-19T13:20:46;17.70;97.00
38860;DHT22;24609;48.316;16.174;2023-10-19T13:23:14;17.60;97.60
38860;DHT22;24609;48.316;16.174;2023-10-19T13:25:47;17.70;98.30
38860;DHT22;24609;48.316;16.174;2023-10-19T13:28:20;18.00;97.40
38860;DHT22;24609;48.316;16.174;2023-10-19T13:30:48;18.00;96.60
38860;DHT22;24609;48.316;16.174;2023-10-19T13:33:14;17.90;97.10
38860;DHT22;24609;48.316;16.174;2023-10-19T13:35:42;17.90;97.80
38860;DHT22;24609;48.316;16.174;2023-10-19T13:38:09;17.70;97.70
38860;DHT22;24609;48.316;16.174;2023-10-19T13:40:38;17.50;98.70
38860;DHT22;24609;48.316;16.174;2023-10-19T13:43:05;17.40;99.20
38860;DHT22;24609;48.316;16.174;2023-10-19T13:45:36;17.30;99.90
38860;DHT22;24609;48.316;16.174;2023-10-19T13:48:02;16.90;99.90
38860;DHT22;24609;48.316;16.174;2023-10-19T13:50:29;16.40;99.90
38860;DHT22;24609;48.316;16.174;2023-10-19T13:52:55;16.10;99.90
38860;DHT22;24609;48.316;16.174;2023-10-19T13:55:26;15.90;99.90
38860;DHT22;24609;48.316;16.174;2023-10-19T13:57:53;15.70;99.90
38860;DHT22;24609;48.316;16.174;2023-10-19T14:00:20;15.60;99.90
38860;DHT22;24609;48.316;16.174;2023-10-19T14:03:09;15.60;99.90
38860;DHT22;24609;48.316;16.174;2023-10-19T14:05:37;15.60;99.90
38860;DHT22;24609;48.316;16.174;2023-10-19T14:08:04;15.50;99.90
38860;DHT22;24609;48.316;16.174;2023-10-19T14:10:30;15.60;99.90
38860;DHT22;24609;48.316;16.174;2023-10-19T14:12:59;15.70;99.90
38860;DHT22;24609;48.316;16.174;2023-10-19T14:15:24;16.00;99.90
38860;DHT22;24609;48.316;16.174;2023-10-19T14:17:55;16.10;99.90
38860;DHT22;24609;48.316;16.174;2023-10-19T14:20:21;16.20;99.90
38860;DHT22;24609;48.316;16.174;2023-10-19T14:22:51;16.30;99.90
38860;DHT22;24609;48.316;16.174;2023-10-19T14:25:19;16.60;99.90
38860;DHT22;24609;48.316;16.174;2023-10-19T14:27:49;16.90;99.90
38860;DHT22;24609;48.316;16.174;2023-10-19T14:30:16;16.90;99.90
38860;DHT22;24609;48.316;16.174;2023-10-19T14:32:46;17.00;99.90
38860;DHT22;24609;48.316;16.174;2023-10-19T14:35:16;16.70;99.90
38860;DHT22;24609;48.316;16.174;2023-10-19T14:37:53;16.40;99.90
38860;DHT22;24609;48.316;16.174;2023-10-19T14:40:25;16.30;99.90
38860;DHT22;24609;48.316;16.174;2023-10-19T14:42:52;16.10;99.90
38860;DHT22;24609;48.316;16.174;2023-10-19T14:45:26;16.00;99.90
38860;DHT22;24609;48.316;16.174;2023-10-19T14:47:54;16.00;99.90
38860;DHT22;24609;48.316;16.174;2023-10-19T14:50:21;15.90;99.90
38860;DHT22;24609;48.316;16.174;2023-10-19T14:52:49;15.80;99.90
38860;DHT22;24609;48.316;16.174;2023-10-19T14:55:17;15.60;99.90
38860;DHT22;24609;48.316;16.174;2023-10-19T14:57:44;15.50;99.90
38860;DHT22;24609;48.316;16.174;2023-10-19T15:00:12;15.40;99.90
38860;DHT22;24609;48.316;16.174;2023-10-19T15:02:47;15.40;99.90
38860;DHT22;24609;48.316;16.174;2023-10-19T15:05:14;15.20;99.90
38860;DHT22;24609;48.316;16.174;2023-10-19T15:07:46;15.10;99.90
38860;DHT22;24609;48.316;16.174;2023-10-19T15:10:22;15.00;99.90
38860;DHT22;24609;48.316;16.174;2023-10-19T15:12:48;14.90;99.90
38860;DHT22;24609;48.316;16.174;2023-10-19T15:15:14;14.80;99.90
38860;DHT22;24609;48.316;16.174;2023-10-19T15:17:41;14.60;99.90
38860;DHT22;24609;48.316;16.174;2023-10-19T15:20:08;14.60;99.90
38860;DHT22;24609;48.316;16.174;2023-10-19T15:22:40;14.50;99.90
38860;DHT22;24609;48.316;16.174;2023-10-19T15:25:06;14.40;99.90
38860;DHT22;24609;48.316;16.174;2023-10-19T15:27:39;14.40;99.90
38860;DHT22;24609;48.316;16.174;2023-10-19T15:30:06;14.30;99.90
38860;DHT22;24609;48.316;16.174;2023-10-19T15:32:32;14.30;99.90
38860;DHT22;24609;48.316;16.174;2023-10-19T15:34:58;14.20;99.90
38860;DHT22;24609;48.316;16.174;2023-10-19T15:37:24;14.20;99.90
38860;DHT22;24609;48.316;16.174;2023-10-19T15:39:50;14.30;99.90
38860;DHT22;24609;48.316;16.174;2023-10-19T15:42:16;14.20;99.90